BIBD

Bildudalur Airport

Bildudalur, Iceland

BIBD 250700Z 20005KT 9999 SCT030 08/05 Q1010

Observed Flight Rules
Sep-25 @ 07:00 UTC (60 minutes ago)
 
Visual Flight Rules
Wind Visibility Clouds
200° at 5 knots 10,000+ meters
  • Scattered at 3,000' AGL
Temperatures Readings
Current 8°C / 46°F
Dewpoint 5°C / 41°F
Humidity 82%
Altimeter 29.82" Hg
Pressure 1010 hPa
Elevation 6
Observed Flight Rules
Sep-25 @ 07:00 UTC
(60 minutes ago)
 
VFR
Wind Visibility
200° at 5 knots 10,000+ meters
Clouds
  • Scattered at 3,000' AGL
Temperature Dewpoint
8°C / 46°F 5°C / 41°F
Humidity Altimeter Pressure
82% 29.82" Hg 1010 hPa